createdAt,value
2023-05-19T00:02:28.383Z,5.80
2023-05-19T00:05:41.078Z,6.00
2023-05-19T00:08:47.537Z,6.20
2023-05-19T00:11:54.622Z,6.00
2023-05-19T00:15:01.612Z,6.30
2023-05-19T00:18:09.045Z,6.20
2023-05-19T00:21:15.826Z,6.00
2023-05-19T00:24:22.316Z,6.90
2023-05-19T00:27:29.534Z,6.20
2023-05-19T00:30:35.933Z,6.90
2023-05-19T00:33:42.129Z,6.60
2023-05-19T00:36:48.680Z,6.40
2023-05-19T00:39:54.924Z,6.50
2023-05-19T00:43:05.604Z,6.50
2023-05-19T00:46:12.195Z,5.80
2023-05-19T00:49:20.397Z,6.30
2023-05-19T00:52:26.668Z,5.60
2023-05-19T00:55:34.511Z,5.90
2023-05-19T00:58:40.933Z,6.40
2023-05-19T01:01:49.328Z,6.90
2023-05-19T01:04:56.348Z,6.90
2023-05-19T01:08:02.638Z,7.00
2023-05-19T01:11:10.430Z,7.80
2023-05-19T01:14:17.503Z,8.50
2023-05-19T01:17:30.898Z,8.20
2023-05-19T01:20:40.389Z,8.80
2023-05-19T01:23:57.236Z,8.70
2023-05-19T01:27:36.754Z,8.10
2023-05-19T01:30:44.438Z,8.20
2023-05-19T01:33:51.518Z,7.90
2023-05-19T01:36:59.320Z,8.30
2023-05-19T01:40:06.614Z,7.20
2023-05-19T01:43:15.365Z,7.10
2023-05-19T01:46:22.237Z,7.10
2023-05-19T01:49:29.436Z,6.80
2023-05-19T01:52:38.180Z,7.10
2023-05-19T01:55:52.008Z,8.20
2023-05-19T01:59:05.193Z,7.60
2023-05-19T02:02:15.398Z,7.30
2023-05-19T02:05:29.455Z,6.90
2023-05-19T02:08:43.132Z,7.10
2023-05-19T02:11:54.895Z,7.60
2023-05-19T02:15:08.034Z,7.30
2023-05-19T02:18:17.944Z,7.70
2023-05-19T02:21:25.187Z,7.90
2023-05-19T02:24:31.704Z,7.80
2023-05-19T02:27:38.854Z,7.80
2023-05-19T02:30:45.139Z,7.70
2023-05-19T02:33:51.350Z,7.90
2023-05-19T02:36:57.895Z,7.60
2023-05-19T02:40:05.123Z,7.80
2023-05-19T02:43:11.645Z,7.70
2023-05-19T02:46:17.789Z,8.30
2023-05-19T02:49:25.021Z,8.30
2023-05-19T02:52:31.854Z,7.60
2023-05-19T02:55:38.122Z,7.10
2023-05-19T02:58:44.760Z,7.40
2023-05-19T03:01:51.592Z,7.90
2023-05-19T03:04:58.521Z,7.10
2023-05-19T03:08:04.880Z,8.00
2023-05-19T03:11:11.494Z,7.50
2023-05-19T03:14:19.041Z,7.30
2023-05-19T03:17:25.701Z,7.80
2023-05-19T03:20:32.436Z,7.60
2023-05-19T03:23:38.949Z,8.10
2023-05-19T03:26:45.119Z,7.70
2023-05-19T03:29:53.030Z,7.80
2023-05-19T03:33:01.830Z,7.50
2023-05-19T03:36:10.127Z,7.60
2023-05-19T03:39:16.618Z,7.50
2023-05-19T03:42:23.265Z,7.50
2023-05-19T03:45:29.763Z,7.10
2023-05-19T03:48:36.191Z,7.30
2023-05-19T03:51:43.265Z,7.00
2023-05-19T03:54:49.582Z,7.40
2023-05-19T03:57:56.259Z,6.80
2023-05-19T04:01:03.462Z,6.90
2023-05-19T04:04:10.213Z,7.40
2023-05-19T04:07:16.798Z,7.50
2023-05-19T04:10:24.750Z,7.10
2023-05-19T04:13:32.288Z,7.40
2023-05-19T04:16:38.938Z,7.30
2023-05-19T04:19:45.192Z,7.50
2023-05-19T04:22:51.749Z,7.80
2023-05-19T04:25:59.084Z,7.90
2023-05-19T04:29:05.595Z,7.00
2023-05-19T04:32:12.056Z,8.80
2023-05-19T04:35:20.266Z,8.60
2023-05-19T04:38:29.188Z,9.00
2023-05-19T04:41:35.969Z,8.60
2023-05-19T04:44:42.625Z,8.60
2023-05-19T04:47:50.412Z,7.80
2023-05-19T04:50:57.255Z,7.90
2023-05-19T04:54:04.117Z,8.60
2023-05-19T04:57:11.050Z,8.70
2023-05-19T05:00:19.179Z,8.70
2023-05-19T05:03:26.561Z,9.40
2023-05-19T05:06:33.263Z,9.20
2023-05-19T05:09:39.598Z,10.10
2023-05-19T05:12:46.620Z,10.20
2023-05-19T05:15:56.561Z,10.20
2023-05-19T05:19:04.390Z,10.10
2023-05-19T05:22:13.646Z,9.40
2023-05-19T05:25:23.419Z,9.30
2023-05-19T05:28:29.943Z,9.00
2023-05-19T05:31:37.087Z,9.10
2023-05-19T05:34:43.296Z,9.00
2023-05-19T05:37:49.653Z,9.70
2023-05-19T05:40:55.933Z,10.00
2023-05-19T05:44:02.671Z,10.00
2023-05-19T05:47:12.210Z,10.00
2023-05-19T05:50:20.829Z,10.30
2023-05-19T05:53:28.851Z,9.70
2023-05-19T05:56:41.252Z,10.30
2023-05-19T05:59:51.775Z,11.10
2023-05-19T06:02:59.360Z,9.90
2023-05-19T06:06:06.441Z,10.40
2023-05-19T06:09:12.933Z,9.70
2023-05-19T06:12:19.470Z,10.10
2023-05-19T06:15:26.773Z,10.50
2023-05-19T06:18:33.470Z,10.40
2023-05-19T06:21:40.249Z,9.60
2023-05-19T06:24:46.512Z,11.50
2023-05-19T06:27:53.080Z,10.90
2023-05-19T06:31:00.156Z,9.80
2023-05-19T06:34:07.074Z,9.90
2023-05-19T06:37:15.026Z,9.80
2023-05-19T06:40:24.041Z,10.20
2023-05-19T06:43:30.387Z,10.30
2023-05-19T06:46:37.152Z,10.30
2023-05-19T06:49:43.724Z,10.30
2023-05-19T06:52:50.699Z,9.30
2023-05-19T06:55:59.938Z,10.00
2023-05-19T06:59:06.524Z,10.30
2023-05-19T07:02:13.160Z,9.70
2023-05-19T07:05:21.777Z,9.30
2023-05-19T07:08:28.589Z,10.20
2023-05-19T07:11:34.971Z,9.80
2023-05-19T07:14:41.510Z,9.50
2023-05-19T07:17:47.919Z,10.20
2023-05-19T07:20:54.671Z,10.00
2023-05-19T07:24:01.246Z,10.50
2023-05-19T07:27:08.326Z,11.00
2023-05-19T07:30:15.730Z,9.40
2023-05-19T07:33:22.286Z,9.70
2023-05-19T07:36:28.794Z,10.90
2023-05-19T07:39:36.167Z,10.90
2023-05-19T07:42:42.875Z,11.00
2023-05-19T07:45:53.735Z,9.40
2023-05-19T07:49:00.204Z,9.70
2023-05-19T07:52:06.825Z,9.60
2023-05-19T07:55:13.722Z,9.30
2023-05-19T07:58:20.912Z,9.50
2023-05-19T08:01:28.359Z,9.90
2023-05-19T08:04:35.040Z,10.50
2023-05-19T08:07:41.860Z,10.40
2023-05-19T08:10:48.286Z,10.00
2023-05-19T08:13:54.745Z,9.40
2023-05-19T08:17:01.008Z,10.00
2023-05-19T08:20:10.321Z,9.30
2023-05-19T08:23:17.673Z,9.40
2023-05-19T08:26:24.219Z,9.70
2023-05-19T08:29:30.594Z,9.30
2023-05-19T08:32:37.157Z,8.60
2023-05-19T08:35:43.769Z,8.30
2023-05-19T08:38:50.284Z,9.10
2023-05-19T08:41:57.327Z,8.20
2023-05-19T08:45:03.864Z,7.60
2023-05-19T08:48:10.798Z,7.90
2023-05-19T08:51:29.468Z,8.20
2023-05-19T08:54:43.961Z,8.30
2023-05-19T08:57:51.014Z,8.10
2023-05-19T09:00:59.523Z,7.60
2023-05-19T09:04:08.057Z,8.50
2023-05-19T09:07:15.578Z,8.40
2023-05-19T09:10:22.376Z,7.30
2023-05-19T09:13:28.644Z,7.20
2023-05-19T09:16:35.799Z,7.10
2023-05-19T09:19:49.364Z,7.30
2023-05-19T09:22:55.641Z,7.20
2023-05-19T09:26:07.640Z,5.90
2023-05-19T09:29:18.707Z,6.60
2023-05-19T09:32:29.038Z,5.90
2023-05-19T09:35:37.765Z,6.90
2023-05-19T09:38:48.538Z,6.30
2023-05-19T09:41:58.537Z,5.30
2023-05-19T09:45:05.882Z,5.10
2023-05-19T09:48:12.908Z,5.70
2023-05-19T09:51:21.483Z,5.00
2023-05-19T09:54:29.700Z,5.00
2023-05-19T09:57:38.956Z,4.90
2023-05-19T10:00:45.514Z,5.80
2023-05-19T10:03:52.223Z,5.00
2023-05-19T10:07:00.678Z,5.40
2023-05-19T10:10:08.318Z,5.30
2023-05-19T10:13:15.099Z,5.00
2023-05-19T10:16:23.152Z,4.60
2023-05-19T10:19:29.903Z,5.10
2023-05-19T10:22:36.666Z,4.90
2023-05-19T10:25:43.051Z,5.00
2023-05-19T10:28:49.293Z,4.70
2023-05-19T10:31:56.749Z,4.80
2023-05-19T10:35:21.188Z,4.50
2023-05-19T10:38:32.680Z,4.60
2023-05-19T10:41:47.208Z,5.10
2023-05-19T10:45:03.469Z,4.50
2023-05-19T10:48:13.753Z,4.50
2023-05-19T10:51:21.229Z,4.30
2023-05-19T10:54:43.732Z,4.40
2023-05-19T10:57:58.120Z,4.60
2023-05-19T11:01:08.159Z,4.20
2023-05-19T11:04:16.131Z,4.40
2023-05-19T11:07:24.727Z,4.20
2023-05-19T11:10:32.977Z,4.10
2023-05-19T11:13:40.256Z,4.10
2023-05-19T11:16:49.765Z,4.50
2023-05-19T11:19:57.591Z,4.10
2023-05-19T11:23:11.540Z,3.90
2023-05-19T11:26:18.094Z,4.20
2023-05-19T11:29:24.524Z,4.50
2023-05-19T11:32:31.836Z,4.10
2023-05-19T11:35:38.512Z,4.30
2023-05-19T11:38:45.433Z,4.30
2023-05-19T11:41:54.162Z,4.10
2023-05-19T11:45:01.000Z,4.00
2023-05-19T11:48:10.573Z,3.70
2023-05-19T11:51:17.224Z,4.10
2023-05-19T11:54:30.905Z,3.60
2023-05-19T11:57:38.312Z,4.00
2023-05-19T12:00:48.055Z,3.80
2023-05-19T12:03:54.547Z,4.60
2023-05-19T12:07:01.064Z,4.50
2023-05-19T12:10:08.448Z,3.70
2023-05-19T12:13:15.426Z,3.70
2023-05-19T12:16:24.341Z,3.80
2023-05-19T12:19:31.158Z,4.10
2023-05-19T12:22:37.850Z,3.90
2023-05-19T12:25:44.368Z,3.70
2023-05-19T12:28:51.112Z,3.90
2023-05-19T12:31:57.662Z,3.80
2023-05-19T12:35:06.148Z,4.00
2023-05-19T12:38:12.403Z,4.00
2023-05-19T12:41:20.434Z,3.80
2023-05-19T12:44:26.991Z,4.00
2023-05-19T12:47:36.836Z,3.70
2023-05-19T12:50:43.030Z,3.80
2023-05-19T12:53:49.552Z,3.60
2023-05-19T12:56:56.103Z,3.70
2023-05-19T13:00:07.551Z,3.50
2023-05-19T13:03:17.968Z,3.30
2023-05-19T13:06:24.686Z,3.40
2023-05-19T13:09:35.108Z,3.40
2023-05-19T13:12:41.404Z,3.70
2023-05-19T13:15:49.462Z,3.50
2023-05-19T13:18:55.514Z,3.70
2023-05-19T13:22:02.405Z,3.60
2023-05-19T13:25:10.082Z,3.50
2023-05-19T13:28:16.967Z,3.50
2023-05-19T13:31:23.289Z,3.20
2023-05-19T13:34:30.071Z,3.40
2023-05-19T13:37:36.767Z,3.50
2023-05-19T13:40:43.227Z,3.70
2023-05-19T13:43:49.671Z,3.10
2023-05-19T13:46:56.265Z,3.30
2023-05-19T13:50:04.658Z,3.60
2023-05-19T13:53:12.606Z,3.50
2023-05-19T13:56:20.341Z,3.40
2023-05-19T13:59:27.032Z,3.50
2023-05-19T14:02:34.158Z,3.70
2023-05-19T14:05:41.131Z,3.50
2023-05-19T14:08:47.864Z,3.30
2023-05-19T14:11:54.511Z,3.50
2023-05-19T14:15:01.822Z,3.40
2023-05-19T14:18:08.372Z,3.30
2023-05-19T14:21:14.676Z,3.50
2023-05-19T14:24:21.723Z,3.40
2023-05-19T14:27:28.032Z,3.50
2023-05-19T14:30:35.008Z,3.50
2023-05-19T14:33:42.129Z,3.30
2023-05-19T14:36:49.196Z,3.40
2023-05-19T14:39:56.262Z,3.60
2023-05-19T14:43:02.948Z,3.50
2023-05-19T14:46:09.598Z,3.70
2023-05-19T14:49:16.017Z,3.50
2023-05-19T14:52:22.838Z,3.20
2023-05-19T14:55:29.381Z,3.50
2023-05-19T14:58:35.694Z,3.60
2023-05-19T15:01:41.958Z,3.80
2023-05-19T15:04:48.594Z,3.50
2023-05-19T15:07:55.063Z,3.40
2023-05-19T15:11:01.256Z,3.60
2023-05-19T15:14:08.007Z,3.80
2023-05-19T15:17:14.920Z,3.60
2023-05-19T15:20:21.800Z,4.00
2023-05-19T15:23:28.569Z,3.60
2023-05-19T15:26:35.442Z,3.70
2023-05-19T15:29:42.336Z,3.80
2023-05-19T15:32:48.735Z,3.80
2023-05-19T15:35:54.968Z,4.20
2023-05-19T15:39:01.164Z,4.00
2023-05-19T15:42:07.821Z,3.80
2023-05-19T15:45:14.359Z,3.80
2023-05-19T15:48:21.479Z,3.90
2023-05-19T15:51:28.137Z,3.90
2023-05-19T15:54:34.854Z,3.80
2023-05-19T15:57:42.722Z,3.90
2023-05-19T16:00:49.337Z,3.70
2023-05-19T16:03:55.796Z,3.80
2023-05-19T16:07:02.437Z,4.10
2023-05-19T16:10:11.492Z,4.00
2023-05-19T16:13:17.857Z,4.00
2023-05-19T16:16:26.529Z,4.10
2023-05-19T16:19:33.100Z,3.90
2023-05-19T16:22:39.648Z,3.90
2023-05-19T16:25:46.007Z,3.90
2023-05-19T16:28:52.494Z,4.10
2023-05-19T16:31:58.795Z,4.10
2023-05-19T16:35:07.118Z,4.10
2023-05-19T16:38:13.645Z,4.20
2023-05-19T16:41:20.287Z,4.00
2023-05-19T16:44:26.670Z,4.20
2023-05-19T16:47:33.198Z,4.10
2023-05-19T16:50:40.845Z,4.10
2023-05-19T16:53:47.021Z,4.20
2023-05-19T16:56:54.130Z,4.40
2023-05-19T17:00:00.329Z,3.90
2023-05-19T17:03:06.940Z,4.40
2023-05-19T17:06:13.827Z,4.10
2023-05-19T17:09:25.424Z,4.10
2023-05-19T17:12:31.596Z,4.50
2023-05-19T17:15:38.066Z,4.00
2023-05-19T17:18:44.849Z,4.50
2023-05-19T17:21:51.439Z,4.30
2023-05-19T17:24:58.798Z,4.50
2023-05-19T17:28:05.598Z,4.80
2023-05-19T17:31:15.243Z,4.30
2023-05-19T17:37:26.868Z,4.90
2023-05-19T17:40:33.582Z,4.50
2023-05-19T17:43:40.835Z,4.50
2023-05-19T17:46:47.853Z,4.80
2023-05-19T17:49:54.462Z,4.80
2023-05-19T17:53:02.082Z,5.10
2023-05-19T17:56:11.971Z,4.90
2023-05-19T17:59:21.144Z,5.20
2023-05-19T18:02:29.963Z,5.50
2023-05-19T18:05:37.979Z,8.20
2023-05-19T18:08:47.406Z,8.90
2023-05-19T18:11:55.068Z,8.20
2023-05-19T18:15:01.654Z,8.60
2023-05-19T18:18:10.782Z,6.50
2023-05-19T18:21:18.140Z,11.50
2023-05-19T18:24:24.796Z,18.20
2023-05-19T18:27:33.636Z,15.40
2023-05-19T18:30:40.622Z,7.80
2023-05-19T18:33:46.892Z,7.50
2023-05-19T18:36:53.999Z,6.50
2023-05-19T18:40:01.589Z,6.30
2023-05-19T18:43:08.157Z,6.50
2023-05-19T18:46:14.703Z,8.60
2023-05-19T18:49:25.000Z,6.90
2023-05-19T18:52:34.116Z,8.40
2023-05-19T18:55:40.707Z,8.50
2023-05-19T18:58:47.013Z,8.70
2023-05-19T19:01:54.101Z,9.30
2023-05-19T19:05:01.649Z,7.80
2023-05-19T19:08:08.567Z,21.70
2023-05-19T19:11:15.096Z,19.10
2023-05-19T19:14:21.871Z,18.00
2023-05-19T19:17:28.248Z,18.60
2023-05-19T19:20:35.003Z,12.30
2023-05-19T19:23:41.544Z,9.20
2023-05-19T19:26:47.863Z,8.60
2023-05-19T19:29:54.474Z,7.90
2023-05-19T19:33:00.785Z,9.50
2023-05-19T19:36:07.636Z,11.40
2023-05-19T19:39:14.118Z,11.80
2023-05-19T19:42:21.790Z,9.00
2023-05-19T19:45:29.512Z,8.80
2023-05-19T19:48:36.390Z,7.20
2023-05-19T19:51:42.731Z,7.80
2023-05-19T19:54:49.538Z,7.50
2023-05-19T19:57:55.678Z,7.00
2023-05-19T20:01:03.339Z,7.10
2023-05-19T20:04:11.431Z,7.20
2023-05-19T20:07:19.848Z,6.90
2023-05-19T20:10:27.229Z,7.20
2023-05-19T20:13:33.698Z,7.00
2023-05-19T20:16:40.666Z,7.00
2023-05-19T20:19:47.154Z,7.10
2023-05-19T20:22:55.138Z,7.50
2023-05-19T20:26:11.010Z,7.20
2023-05-19T20:29:19.042Z,7.40
2023-05-19T20:32:25.258Z,7.60
2023-05-19T20:35:32.170Z,7.30
2023-05-19T20:38:40.628Z,6.00
2023-05-19T20:41:47.219Z,5.60
2023-05-19T20:44:53.537Z,5.40
2023-05-19T20:48:00.799Z,6.20
2023-05-19T20:51:07.961Z,6.40
2023-05-19T20:54:14.404Z,7.10
2023-05-19T20:57:20.917Z,6.50
2023-05-19T21:00:30.150Z,7.10
2023-05-19T21:03:37.228Z,7.70
2023-05-19T21:06:43.910Z,7.90
2023-05-19T21:09:51.668Z,7.40
2023-05-19T21:12:58.981Z,7.30
2023-05-19T21:16:05.676Z,7.00
2023-05-19T21:19:11.876Z,6.90
2023-05-19T21:22:18.472Z,7.10
2023-05-19T21:25:26.182Z,6.90
2023-05-19T21:28:32.588Z,7.10
2023-05-19T21:31:39.397Z,7.90
2023-05-19T21:34:47.434Z,7.40
2023-05-19T21:37:54.028Z,7.70
2023-05-19T21:41:01.781Z,8.10
2023-05-19T21:44:08.333Z,7.70
2023-05-19T21:47:15.089Z,7.90
2023-05-19T21:50:22.060Z,7.60
2023-05-19T21:53:28.257Z,7.00
2023-05-19T21:56:34.997Z,7.00
2023-05-19T21:59:41.348Z,7.10
2023-05-19T22:02:47.622Z,6.70
2023-05-19T22:05:54.742Z,7.00
2023-05-19T22:09:02.732Z,6.90
2023-05-19T22:12:10.651Z,6.50
2023-05-19T22:15:17.319Z,6.20
2023-05-19T22:18:23.499Z,6.70
2023-05-19T22:21:29.883Z,6.30
2023-05-19T22:24:36.840Z,6.60
2023-05-19T22:27:43.616Z,6.10
2023-05-19T22:30:50.261Z,5.80
2023-05-19T22:33:56.503Z,5.80
2023-05-19T22:37:02.634Z,5.40
2023-05-19T22:40:10.661Z,5.40
2023-05-19T22:43:16.757Z,5.90
2023-05-19T22:46:23.486Z,5.40
2023-05-19T22:49:30.308Z,5.30
2023-05-19T22:52:36.629Z,5.80
2023-05-19T22:55:43.436Z,5.60
2023-05-19T22:58:49.997Z,5.90
2023-05-19T23:01:56.386Z,5.40
2023-05-19T23:05:03.148Z,5.80
2023-05-19T23:08:09.808Z,5.40
2023-05-19T23:11:16.501Z,5.60
2023-05-19T23:14:23.207Z,5.60
2023-05-19T23:20:42.572Z,5.80
2023-05-19T23:23:49.135Z,6.20
2023-05-19T23:26:57.119Z,5.90
2023-05-19T23:30:04.331Z,5.60
2023-05-19T23:33:11.172Z,6.00
2023-05-19T23:36:17.853Z,5.70
2023-05-19T23:39:25.595Z,5.60
2023-05-19T23:42:31.914Z,5.60
2023-05-19T23:45:38.211Z,5.50
2023-05-19T23:48:44.542Z,5.90
2023-05-19T23:51:51.006Z,5.80
2023-05-19T23:54:58.402Z,5.70
2023-05-19T23:58:04.725Z,5.90
